createdAt,value
2022-09-05T00:02:03.306Z,17.50
2022-09-05T00:08:53.723Z,17.40
2022-09-05T00:15:54.681Z,17.40
2022-09-05T00:24:29.484Z,17.50
2022-09-05T00:31:07.858Z,17.40
2022-09-05T00:37:36.553Z,17.20
2022-09-05T00:44:22.382Z,17.00
2022-09-05T00:51:29.248Z,17.00
2022-09-05T00:58:19.952Z,16.60
2022-09-05T01:05:37.553Z,16.80
2022-09-05T01:12:40.740Z,16.50
2022-09-05T01:19:45.507Z,16.60
2022-09-05T01:26:46.369Z,16.50
2022-09-05T01:33:55.756Z,16.40
2022-09-05T01:41:17.674Z,16.50
2022-09-05T01:48:06.173Z,16.50
2022-09-05T01:55:12.378Z,16.40
2022-09-05T02:02:18.986Z,16.20
2022-09-05T02:09:40.774Z,16.20
2022-09-05T02:16:44.241Z,16.10
2022-09-05T02:23:41.205Z,16.10
2022-09-05T02:30:26.619Z,16.10
2022-09-05T02:37:16.109Z,16.00
2022-09-05T02:45:24.177Z,16.00
2022-09-05T02:57:25.866Z,16.10
2022-09-05T02:59:36.372Z,16.00
2022-09-05T03:07:03.559Z,16.00
2022-09-05T03:14:04.089Z,15.90
2022-09-05T03:21:19.946Z,15.90
2022-09-05T03:28:17.470Z,15.80
2022-09-05T03:35:30.761Z,15.80
2022-09-05T03:42:39.626Z,15.80
2022-09-05T03:53:16.400Z,15.90
2022-09-05T03:57:33.681Z,15.80
2022-09-05T04:08:06.669Z,15.70
2022-09-05T04:11:49.640Z,15.70
2022-09-05T04:18:43.654Z,15.70
2022-09-05T04:25:44.019Z,15.80
2022-09-05T04:32:36.679Z,15.80
2022-09-05T04:39:20.169Z,15.90
2022-09-05T04:46:28.084Z,16.00
2022-09-05T04:53:31.681Z,16.10
2022-09-05T05:06:05.976Z,16.20
2022-09-05T05:08:04.346Z,16.30
2022-09-05T05:17:58.202Z,16.40
2022-09-05T05:22:03.419Z,16.50
2022-09-05T05:29:08.325Z,16.70
2022-09-05T05:35:51.910Z,16.90
2022-09-05T05:42:37.783Z,17.00
2022-09-05T05:50:11.236Z,17.10
2022-09-05T05:57:15.004Z,16.90
2022-09-05T06:04:22.581Z,17.20
2022-09-05T06:15:01.765Z,18.30
2022-09-05T06:18:45.883Z,21.60
2022-09-05T06:25:45.258Z,23.00
2022-09-05T06:32:58.481Z,22.80
2022-09-05T06:39:50.287Z,24.30
2022-09-05T06:46:54.785Z,23.70
2022-09-05T06:53:42.947Z,25.20
2022-09-05T07:00:45.525Z,27.00
2022-09-05T07:07:46.219Z,28.80
2022-09-05T07:14:34.773Z,27.50
2022-09-05T07:21:32.279Z,28.90
2022-09-05T07:28:28.638Z,28.90
2022-09-05T07:35:29.207Z,30.70
2022-09-05T07:42:23.486Z,29.10
2022-09-05T07:49:12.102Z,30.90
2022-09-05T07:56:59.941Z,32.90
2022-09-05T08:03:12.609Z,33.10
2022-09-05T08:10:10.587Z,33.00
2022-09-05T08:16:53.338Z,35.00
2022-09-05T08:23:41.648Z,35.20
2022-09-05T08:30:27.715Z,35.80
2022-09-05T08:37:21.686Z,35.60
2022-09-05T08:46:39.336Z,34.10
2022-09-05T08:51:54.239Z,35.40
2022-09-05T08:59:31.457Z,37.30
2022-09-05T09:06:32.369Z,37.10
2022-09-05T09:13:53.918Z,37.20
2022-09-05T09:20:56.668Z,38.40
2022-09-05T09:28:48.391Z,39.00
2022-09-05T09:35:25.710Z,36.90
2022-09-05T09:42:32.581Z,35.20
2022-09-05T09:49:23.731Z,36.10
2022-09-05T09:56:35.648Z,36.10
2022-09-05T10:08:51.128Z,36.00
2022-09-05T10:11:03.928Z,37.80
2022-09-05T10:17:59.766Z,38.00
2022-09-05T10:25:19.585Z,37.60
2022-09-05T10:35:08.404Z,37.70
2022-09-05T10:39:21.092Z,36.60
2022-09-05T10:46:48.995Z,36.50
2022-09-05T10:53:46.642Z,34.60
2022-09-05T11:02:22.307Z,32.30
2022-09-05T11:07:48.506Z,31.10
2022-09-05T11:14:34.759Z,31.00
2022-09-05T11:21:40.149Z,30.30
2022-09-05T11:28:38.990Z,30.50
2022-09-05T11:39:56.071Z,30.50
2022-09-05T11:43:24.615Z,30.40
2022-09-05T11:50:18.855Z,29.70
2022-09-05T11:57:38.843Z,29.50
2022-09-05T12:04:42.118Z,29.60
2022-09-05T12:11:44.361Z,29.70
2022-09-05T12:18:43.698Z,29.90
2022-09-05T12:27:35.877Z,30.30
2022-09-05T12:36:01.536Z,30.00
2022-09-05T12:41:32.355Z,29.60
2022-09-05T12:47:18.569Z,29.80
2022-09-05T12:54:32.879Z,29.70
2022-09-05T13:03:03.808Z,29.80
2022-09-05T13:08:21.452Z,30.30
2022-09-05T13:15:21.493Z,30.60
2022-09-05T13:22:06.176Z,29.90
2022-09-05T13:29:10.137Z,29.70
2022-09-05T13:38:12.341Z,29.90
2022-09-05T13:43:23.059Z,29.60
2022-09-05T13:50:30.170Z,29.30
2022-09-05T13:58:07.188Z,29.30
2022-09-05T14:05:05.827Z,29.30
2022-09-05T14:12:03.004Z,29.70
2022-09-05T14:19:06.970Z,29.80
2022-09-05T14:25:58.260Z,30.10
2022-09-05T14:37:38.825Z,30.20
2022-09-05T14:40:55.184Z,30.20
2022-09-05T14:47:42.231Z,30.00
2022-09-05T15:02:54.383Z,30.20
2022-09-05T15:09:42.160Z,30.40
2022-09-05T15:15:39.188Z,30.50
2022-09-05T15:22:31.197Z,30.60
2022-09-05T15:29:14.733Z,30.50
2022-09-05T15:35:58.785Z,30.60
2022-09-05T15:43:00.595Z,30.30
2022-09-05T15:49:49.111Z,30.20
2022-09-05T15:56:31.804Z,30.30
2022-09-05T16:05:30.436Z,30.00
2022-09-05T16:10:57.822Z,29.90
2022-09-05T16:23:13.865Z,30.00
2022-09-05T16:24:59.849Z,30.00
2022-09-05T16:31:47.422Z,29.60
2022-09-05T16:38:50.093Z,29.30
2022-09-05T16:45:53.115Z,29.10
2022-09-05T16:53:20.907Z,29.00
2022-09-05T17:00:09.543Z,28.60
2022-09-05T17:07:12.186Z,28.40
2022-09-05T17:13:57.446Z,28.40
2022-09-05T17:20:42.184Z,28.40
2022-09-05T17:29:26.023Z,28.30
2022-09-05T17:35:16.597Z,28.10
2022-09-05T17:42:28.069Z,27.70
2022-09-05T17:49:20.074Z,27.30
2022-09-05T17:56:05.242Z,27.00
2022-09-05T18:02:56.642Z,26.60
2022-09-05T18:09:48.030Z,26.10
2022-09-05T18:17:35.534Z,25.90
2022-09-05T18:24:02.355Z,25.70
2022-09-05T18:30:45.155Z,25.40
2022-09-05T18:37:37.052Z,25.10
2022-09-05T18:44:21.106Z,24.90
2022-09-05T18:51:15.563Z,24.90
2022-09-05T18:58:10.888Z,24.70
2022-09-05T19:04:57.194Z,24.60
2022-09-05T19:11:56.781Z,24.40
2022-09-05T19:19:07.946Z,24.30
2022-09-05T19:25:58.910Z,23.90
2022-09-05T19:37:08.888Z,23.90
2022-09-05T19:42:49.501Z,23.90
2022-09-05T19:47:55.771Z,23.70
2022-09-05T19:54:26.723Z,23.50
2022-09-05T20:01:15.992Z,23.30
2022-09-05T20:07:59.664Z,23.20
2022-09-05T20:14:42.644Z,23.10
2022-09-05T20:21:28.686Z,23.00
2022-09-05T20:28:15.571Z,23.00
2022-09-05T20:40:47.112Z,22.90
2022-09-05T20:43:15.901Z,22.70
2022-09-05T20:54:05.407Z,22.30
2022-09-05T20:56:27.916Z,22.20
2022-09-05T21:03:15.871Z,22.20
2022-09-05T21:10:06.428Z,22.20
2022-09-05T21:17:15.006Z,22.00
2022-09-05T21:24:17.797Z,21.90
2022-09-05T21:31:04.583Z,21.80
2022-09-05T21:37:49.512Z,21.80
2022-09-05T21:47:41.628Z,21.80
2022-09-05T21:51:37.751Z,21.70
2022-09-05T21:59:25.143Z,21.50
2022-09-05T22:05:25.188Z,21.40
2022-09-05T22:12:17.483Z,21.20
2022-09-05T22:19:11.404Z,21.10
2022-09-05T22:25:54.011Z,21.00
2022-09-05T22:32:36.468Z,20.80
2022-09-05T22:39:36.339Z,20.60
2022-09-05T22:46:20.014Z,20.40
2022-09-05T22:53:08.092Z,20.40
2022-09-05T22:59:54.430Z,20.40
2022-09-05T23:06:40.774Z,20.50
2022-09-05T23:13:27.706Z,20.50
2022-09-05T23:20:14.841Z,20.50
2022-09-05T23:27:19.551Z,20.20
2022-09-05T23:34:06.431Z,20.10
2022-09-05T23:40:53.581Z,20.10
2022-09-05T23:47:40.022Z,20.10
2022-09-05T23:54:24.042Z,19.70
